Time;durP1;ratioP1;P1;durP2;ratioP2;P2;SDS_P1;SDS_P2;PMS_P1;PMS_P2;Temp;Humidity;BMP_temperature;BMP_pressure;BME280_temperature;BME280_humidity;BME280_pressure;Samples;Min_cycle;Max_cycle;Signal;HPM_P1;HPM_P2
2024/01/04 00:01:52;;;;;;;1.20;0.20;;;8.80;1.00;;;;;;5121897;27;20753;-71
2024/01/04 00:04:19;;;;;;;0.50;0.20;;;8.80;1.00;;;;;;5122547;27;20544;-72
2024/01/04 00:06:48;;;;;;;0.60;0.10;;;8.70;1.00;;;;;;5125901;27;20432;-72
2024/01/04 00:09:17;;;;;;;0.60;0.20;;;8.70;4.80;;;;;;5124217;27;20418;-72
2024/01/04 00:11:44;;;;;;;1.17;0.10;;;8.80;3.00;;;;;;5122222;27;20857;-72
2024/01/04 00:14:11;;;;;;;0.50;0.10;;;8.80;1.00;;;;;;5124158;27;20429;-72
2024/01/04 00:16:38;;;;;;;0.57;0.10;;;8.80;1.00;;;;;;5124325;27;20445;-72
2024/01/04 00:19:06;;;;;;;0.60;0.10;;;8.70;1.00;;;;;;5124816;27;20417;-72
2024/01/04 00:21:33;;;;;;;0.80;0.10;;;8.70;1.00;;;;;;5118134;27;20436;-72
2024/01/04 00:24:01;;;;;;;0.30;0.10;;;8.80;5.90;;;;;;5120649;27;20466;-72
2024/01/04 00:26:29;;;;;;;0.30;0.20;;;8.70;1.00;;;;;;5117537;27;20681;-72
2024/01/04 00:28:57;;;;;;;0.40;0.20;;;8.70;1.00;;;;;;5123771;27;20431;-72
2024/01/04 00:31:24;;;;;;;1.17;0.20;;;8.60;2.20;;;;;;5119268;27;20589;-72
2024/01/04 00:33:52;;;;;;;1.10;0.30;;;8.60;27.00;;;;;;5123238;27;20414;-72
2024/01/04 00:36:19;;;;;;;0.90;0.20;;;8.60;30.00;;;;;;5120376;27;20430;-73
2024/01/04 00:38:46;;;;;;;3.20;0.30;;;8.60;51.60;;;;;;5119371;27;20774;-72
2024/01/04 00:41:17;;;;;;;0.40;0.10;;;8.70;34.30;;;;;;5120098;27;20419;-72
2024/01/04 00:43:45;;;;;;;0.88;0.20;;;8.60;27.90;;;;;;5116211;27;20594;-74
2024/01/04 00:46:12;;;;;;;0.30;0.10;;;8.50;30.10;;;;;;5126475;27;20417;-73
2024/01/04 00:48:39;;;;;;;0.60;0.10;;;8.50;33.40;;;;;;5118374;27;20772;-73
2024/01/04 00:51:07;;;;;;;1.27;0.20;;;8.50;44.40;;;;;;5122429;27;20432;-72
2024/01/04 00:53:45;;;;;;;0.40;0.10;;;8.60;38.30;;;;;;5121979;27;20420;-73
2024/01/04 00:56:12;;;;;;;0.70;0.20;;;8.50;43.80;;;;;;5116382;27;20465;-72
2024/01/04 00:58:39;;;;;;;0.45;0.10;;;8.40;51.30;;;;;;5119807;27;20425;-72
2024/01/04 01:01:07;;;;;;;1.40;0.20;;;8.40;72.50;;;;;;5119625;27;20442;-72
2024/01/04 01:03:35;;;;;;;0.80;0.10;;;8.40;77.70;;;;;;5123150;27;20864;-72
2024/01/04 01:06:02;;;;;;;0.80;0.10;;;8.50;71.40;;;;;;5127295;27;20458;-73
2024/01/04 01:08:29;;;;;;;0.40;0.10;;;8.50;84.30;;;;;;5121164;27;20444;-71
2024/01/04 01:10:56;;;;;;;1.05;0.20;;;8.40;93.70;;;;;;5121748;27;20435;-72
2024/01/04 01:13:23;;;;;;;1.00;0.10;;;8.30;92.60;;;;;;5121813;27;20426;-72
2024/01/04 01:15:50;;;;;;;0.40;0.17;;;8.30;99.90;;;;;;5114580;27;20534;-71
2024/01/04 01:18:19;;;;;;;0.60;0.10;;;8.30;99.90;;;;;;5121626;27;20433;-72
2024/01/04 01:20:46;;;;;;;0.30;0.10;;;8.20;99.90;;;;;;5119619;27;20430;-72
2024/01/04 01:23:13;;;;;;;0.50;0.10;;;8.10;99.90;;;;;;5124270;27;20440;-71
2024/01/04 01:25:41;;;;;;;0.40;0.10;;;8.00;99.90;;;;;;5118476;27;20426;-72
2024/01/04 01:28:08;;;;;;;0.70;0.20;;;8.00;99.90;;;;;;5108570;27;20833;-72
2024/01/04 01:30:35;;;;;;;0.40;0.10;;;8.10;99.90;;;;;;5117393;27;20483;-72
2024/01/04 01:33:05;;;;;;;1.98;0.10;;;8.10;99.90;;;;;;5122351;27;20709;-72
2024/01/04 01:35:34;;;;;;;0.50;0.20;;;8.30;99.90;;;;;;5113425;27;20833;-72
2024/01/04 01:38:01;;;;;;;0.40;0.10;;;8.30;99.90;;;;;;5127254;27;20435;-72
2024/01/04 01:40:28;;;;;;;0.30;0.10;;;8.30;99.90;;;;;;5122374;27;20819;-72
2024/01/04 01:42:55;;;;;;;1.00;0.10;;;8.20;99.90;;;;;;5122857;27;20901;-73
2024/01/04 01:45:22;;;;;;;1.80;0.20;;;8.20;99.90;;;;;;5115727;27;20443;-73
2024/01/04 01:47:49;;;;;;;0.40;0.10;;;8.10;99.90;;;;;;5117715;27;20839;-74
2024/01/04 01:50:20;;;;;;;0.68;0.20;;;8.00;99.90;;;;;;5121128;27;20438;-73
2024/01/04 01:52:51;;;;;;;0.70;0.20;;;8.00;99.90;;;;;;5109808;28;21005;-73
2024/01/04 01:55:18;;;;;;;0.30;0.10;;;8.00;99.90;;;;;;5098360;28;20433;-71
2024/01/04 01:57:45;;;;;;;0.40;0.10;;;7.90;99.90;;;;;;5110565;28;20441;-73
2024/01/04 02:00:15;;;;;;;0.90;0.10;;;7.90;99.90;;;;;;5103829;28;20477;-71
2024/01/04 02:02:45;;;;;;;1.23;0.10;;;7.90;99.90;;;;;;5111475;28;20442;-71
2024/01/04 02:05:13;;;;;;;0.30;0.10;;;8.00;99.90;;;;;;5122276;27;20462;-70
2024/01/04 02:07:41;;;;;;;0.40;0.10;;;8.00;99.90;;;;;;5122762;28;20529;-71
2024/01/04 02:10:10;;;;;;;0.30;0.10;;;7.90;99.90;;;;;;5122115;27;20435;-71
2024/01/04 02:12:37;;;;;;;0.50;0.10;;;7.90;99.90;;;;;;5126081;27;20436;-72
2024/01/04 02:15:05;;;;;;;0.30;0.10;;;7.90;99.90;;;;;;5126812;28;20813;-72
2024/01/04 02:17:32;;;;;;;0.50;0.10;;;7.90;99.90;;;;;;5122409;28;20426;-72
2024/01/04 02:20:01;;;;;;;0.30;0.10;;;7.80;99.90;;;;;;5121365;27;20477;-72
2024/01/04 02:22:28;;;;;;;0.30;0.10;;;7.80;99.90;;;;;;5121420;27;20868;-72
2024/01/04 02:24:57;;;;;;;0.30;0.10;;;7.90;99.90;;;;;;5124444;28;20468;-72
2024/01/04 02:27:24;;;;;;;0.40;0.10;;;7.90;91.80;;;;;;5124209;27;20475;-73
2024/01/04 02:29:51;;;;;;;0.80;0.10;;;7.80;99.90;;;;;;5120312;27;20450;-72
2024/01/04 02:32:18;;;;;;;0.75;0.10;;;7.80;99.90;;;;;;5123074;27;20853;-72
2024/01/04 02:34:45;;;;;;;0.30;0.10;;;7.80;95.60;;;;;;5129578;27;20686;-72
2024/01/04 02:37:12;;;;;;;0.30;0.10;;;7.80;99.90;;;;;;5127098;27;20634;-73
2024/01/04 02:39:39;;;;;;;0.30;0.10;;;7.80;99.90;;;;;;5124289;27;20489;-72
2024/01/04 02:42:08;;;;;;;0.30;0.10;;;7.70;90.90;;;;;;5126856;27;20489;-72
2024/01/04 02:44:35;;;;;;;0.90;0.10;;;7.70;99.90;;;;;;5127987;27;20420;-72
2024/01/04 02:47:02;;;;;;;0.30;0.10;;;7.70;95.50;;;;;;5124511;27;20428;-72
2024/01/04 02:49:30;;;;;;;0.32;0.10;;;7.60;89.00;;;;;;5125470;27;20426;-72
2024/01/04 02:51:57;;;;;;;0.30;0.10;;;7.50;95.20;;;;;;5125259;27;20531;-72
2024/01/04 02:54:24;;;;;;;0.30;0.10;;;7.40;90.50;;;;;;5127140;27;20432;-72
2024/01/04 02:56:51;;;;;;;0.30;0.10;;;7.40;99.90;;;;;;5129104;27;20491;-72
2024/01/04 02:59:19;;;;;;;0.30;0.10;;;7.40;97.90;;;;;;5124490;27;20490;-72
2024/01/04 03:01:48;;;;;;;0.30;0.10;;;7.50;99.90;;;;;;5129196;27;20424;-73
2024/01/04 03:04:15;;;;;;;0.35;0.10;;;7.50;99.90;;;;;;5123957;27;20523;-72
2024/01/04 03:06:42;;;;;;;0.70;0.10;;;7.40;93.30;;;;;;5125671;27;20416;-72
2024/01/04 03:09:10;;;;;;;0.30;0.10;;;7.50;99.90;;;;;;5121415;27;20825;-72
2024/01/04 03:11:37;;;;;;;0.30;0.10;;;7.40;98.30;;;;;;5120274;27;20532;-72
2024/01/04 03:14:05;;;;;;;0.30;0.10;;;7.50;94.30;;;;;;5118826;28;20440;-73
2024/01/04 03:16:34;;;;;;;0.30;0.10;;;7.50;93.40;;;;;;5118160;28;20749;-73
2024/01/04 03:19:01;;;;;;;0.30;0.10;;;7.60;87.50;;;;;;5118469;27;20420;-73
2024/01/04 03:21:28;;;;;;;0.30;0.10;;;7.60;88.70;;;;;;5116193;28;20412;-72
2024/01/04 03:23:55;;;;;;;0.40;0.20;;;7.60;75.20;;;;;;5116465;28;20420;-72
2024/01/04 03:26:22;;;;;;;0.70;0.10;;;7.50;82.30;;;;;;5116272;28;20424;-73
2024/01/04 03:28:49;;;;;;;0.30;0.10;;;7.50;93.70;;;;;;5102184;28;20437;-72
2024/01/04 03:31:16;;;;;;;0.30;0.10;;;7.40;99.90;;;;;;5097569;28;20422;-72
2024/01/04 03:33:44;;;;;;;0.80;0.10;;;7.40;99.90;;;;;;5095962;28;20807;-73
2024/01/04 03:36:14;;;;;;;0.30;0.10;;;7.40;99.90;;;;;;5096698;28;20699;-72
2024/01/04 03:38:41;;;;;;;0.47;0.10;;;7.40;99.90;;;;;;5096901;28;20432;-72
2024/01/04 03:41:10;;;;;;;0.30;0.10;;;7.40;99.90;;;;;;5096841;28;20442;-72
2024/01/04 03:43:37;;;;;;;0.30;0.10;;;7.40;99.90;;;;;;5096648;28;20422;-71
2024/01/04 03:46:06;;;;;;;0.38;0.10;;;7.40;99.90;;;;;;5097686;28;20421;-72
2024/01/04 03:48:33;;;;;;;0.30;0.10;;;7.50;99.90;;;;;;5097205;28;20434;-71
2024/01/04 03:51:02;;;;;;;0.30;0.10;;;7.60;99.90;;;;;;5099504;28;20446;-71
2024/01/04 03:53:29;;;;;;;0.30;0.10;;;7.60;99.90;;;;;;5118215;28;20484;-72
2024/01/04 03:55:56;;;;;;;0.50;0.10;;;7.70;99.90;;;;;;5117752;28;20427;-72
2024/01/04 03:58:23;;;;;;;0.30;0.10;;;7.70;99.90;;;;;;5116011;28;20443;-72
2024/01/04 04:00:50;;;;;;;0.40;0.10;;;7.70;99.90;;;;;;5117810;28;20698;-72
2024/01/04 04:03:19;;;;;;;0.30;0.10;;;7.60;99.90;;;;;;5105950;28;20438;-71
2024/01/04 04:05:46;;;;;;;0.50;0.10;;;7.60;99.90;;;;;;5097010;28;20524;-71
2024/01/04 04:08:14;;;;;;;0.60;0.10;;;7.60;99.90;;;;;;5096008;28;20426;-71
2024/01/04 04:10:42;;;;;;;0.30;0.10;;;7.60;99.90;;;;;;5097227;28;20422;-71
2024/01/04 04:13:09;;;;;;;1.40;0.10;;;7.70;99.90;;;;;;5096386;28;20421;-72
2024/01/04 04:15:36;;;;;;;0.30;0.10;;;7.60;99.90;;;;;;5101146;28;20885;-72
2024/01/04 04:18:04;;;;;;;0.30;0.10;;;7.60;99.90;;;;;;5117103;28;20436;-72
2024/01/04 04:20:31;;;;;;;1.50;0.10;;;7.60;99.90;;;;;;5118040;28;20424;-71
2024/01/04 04:22:58;;;;;;;0.30;0.10;;;7.60;99.90;;;;;;5115144;28;20463;-71
2024/01/04 04:25:26;;;;;;;0.30;0.10;;;7.70;99.90;;;;;;5117252;28;20432;-71
2024/01/04 04:27:53;;;;;;;1.10;0.10;;;7.80;99.90;;;;;;5113890;28;20518;-72
2024/01/04 04:30:20;;;;;;;0.60;0.20;;;7.80;99.90;;;;;;5100471;28;20452;-71
2024/01/04 04:32:47;;;;;;;0.30;0.10;;;7.90;99.90;;;;;;5092492;28;20442;-72
2024/01/04 04:35:15;;;;;;;0.30;0.10;;;7.90;99.90;;;;;;5093507;28;20695;-71
2024/01/04 04:37:42;;;;;;;1.00;0.20;;;8.00;99.90;;;;;;5092759;28;20433;-72
2024/01/04 04:40:11;;;;;;;0.30;0.10;;;8.00;96.60;;;;;;5097653;28;20433;-72
2024/01/04 04:42:39;;;;;;;0.30;0.10;;;8.10;99.80;;;;;;5114919;28;20412;-71
2024/01/04 04:45:07;;;;;;;1.00;0.20;;;8.20;93.50;;;;;;5116191;28;20739;-72
2024/01/04 04:47:34;;;;;;;0.40;0.10;;;8.30;93.40;;;;;;5115138;28;20712;-72
2024/01/04 04:50:01;;;;;;;0.40;0.10;;;8.30;77.10;;;;;;5095896;28;20437;-72
2024/01/04 04:52:28;;;;;;;0.40;0.10;;;8.40;57.40;;;;;;5103447;28;20442;-72
2024/01/04 04:54:55;;;;;;;0.40;0.10;;;8.40;51.90;;;;;;5116452;28;20491;-72
2024/01/04 04:57:22;;;;;;;0.70;0.10;;;8.40;41.00;;;;;;5115613;28;20427;-71
2024/01/04 04:59:50;;;;;;;1.30;0.20;;;8.40;47.90;;;;;;5114526;28;20991;-72
2024/01/04 05:02:17;;;;;;;0.70;0.10;;;8.30;49.20;;;;;;5108853;28;20432;-72
2024/01/04 05:04:45;;;;;;;1.60;0.20;;;8.30;76.70;;;;;;5095324;28;20711;-72
2024/01/04 05:07:12;;;;;;;0.68;0.20;;;8.30;77.70;;;;;;5104769;28;20431;-72
2024/01/04 05:09:39;;;;;;;1.02;0.10;;;8.30;94.70;;;;;;5114310;28;20481;-72
2024/01/04 05:12:06;;;;;;;1.25;0.10;;;8.30;88.80;;;;;;5114854;28;20440;-72
2024/01/04 05:14:33;;;;;;;0.30;0.10;;;8.40;83.30;;;;;;5113928;28;20667;-73
2024/01/04 05:17:02;;;;;;;0.80;0.10;;;8.50;76.60;;;;;;5100606;28;20454;-73
2024/01/04 05:19:29;;;;;;;0.40;0.10;;;8.50;90.20;;;;;;5093219;28;20425;-71
2024/01/04 05:21:56;;;;;;;0.40;0.10;;;8.40;78.20;;;;;;5098567;28;20449;-72
2024/01/04 05:24:23;;;;;;;0.33;0.10;;;8.30;89.20;;;;;;5114916;28;20424;-72
2024/01/04 05:26:50;;;;;;;0.30;0.10;;;8.30;86.80;;;;;;5114338;28;20547;-71
2024/01/04 05:29:17;;;;;;;0.30;0.10;;;8.30;99.90;;;;;;5114970;28;20417;-72
2024/01/04 05:31:44;;;;;;;0.40;0.10;;;8.40;99.90;;;;;;5114915;28;20525;-73
2024/01/04 05:34:12;;;;;;;0.32;0.15;;;8.40;85.60;;;;;;5131404;27;20803;-72
2024/01/04 05:36:39;;;;;;;0.60;0.10;;;8.30;96.50;;;;;;5136176;27;20433;-72
2024/01/04 05:39:06;;;;;;;0.40;0.20;;;8.30;96.40;;;;;;5109910;27;20426;-72
2024/01/04 05:41:33;;;;;;;0.30;0.10;;;8.40;89.20;;;;;;5094320;28;20830;-72
2024/01/04 05:44:00;;;;;;;1.10;0.10;;;8.50;55.70;;;;;;5110733;28;20809;-72
2024/01/04 05:46:27;;;;;;;0.30;0.10;;;8.50;32.40;;;;;;5115264;28;20420;-72
2024/01/04 05:48:54;;;;;;;0.80;0.10;;;8.50;13.40;;;;;;5114778;28;20809;-72
2024/01/04 05:51:22;;;;;;;0.50;0.10;;;8.50;15.70;;;;;;5114678;28;20412;-72
2024/01/04 05:53:49;;;;;;;0.40;0.10;;;8.40;14.70;;;;;;5115023;28;20477;-72
2024/01/04 05:56:16;;;;;;;0.60;0.10;;;8.40;23.50;;;;;;5110637;28;20437;-73
2024/01/04 05:58:44;;;;;;;0.30;0.10;;;8.50;33.60;;;;;;5095756;28;20727;-72
2024/01/04 06:01:11;;;;;;;0.50;0.10;;;8.50;26.10;;;;;;5093836;28;20775;-73
2024/01/04 06:03:38;;;;;;;0.40;0.10;;;8.50;25.30;;;;;;5110399;28;20495;-72
2024/01/04 06:06:06;;;;;;;1.92;0.20;;;8.50;30.30;;;;;;5111550;28;20487;-72
2024/01/04 06:08:35;;;;;;;3.10;0.10;;;8.40;18.60;;;;;;5095601;28;20532;-72
2024/01/04 06:11:06;;;;;;;1.00;0.20;;;8.40;5.00;;;;;;5101883;28;20446;-72
2024/01/04 06:13:33;;;;;;;0.80;0.20;;;8.50;16.50;;;;;;5092930;28;20470;-73
2024/01/04 06:16:04;;;;;;;0.30;0.10;;;8.40;1.00;;;;;;5094345;28;20429;-72
2024/01/04 06:18:31;;;;;;;0.68;0.10;;;8.40;13.70;;;;;;5091807;28;20418;-72
2024/01/04 06:20:58;;;;;;;1.30;0.10;;;8.40;1.00;;;;;;5092333;28;20435;-72
2024/01/04 06:23:26;;;;;;;0.40;0.10;;;8.40;1.00;;;;;;5108834;28;20416;-72
2024/01/04 06:25:54;;;;;;;0.50;0.10;;;8.40;1.00;;;;;;5100710;28;20442;-73
2024/01/04 06:28:21;;;;;;;0.60;0.15;;;8.40;1.00;;;;;;5097327;28;20723;-72
2024/01/04 06:30:48;;;;;;;0.40;0.10;;;8.40;1.00;;;;;;5111687;28;20852;-73
2024/01/04 06:33:15;;;;;;;0.40;0.10;;;8.40;1.00;;;;;;5091526;28;20880;-72
2024/01/04 06:35:43;;;;;;;0.70;0.10;;;8.50;1.00;;;;;;5094896;28;20526;-72
2024/01/04 06:38:10;;;;;;;0.55;0.10;;;8.50;1.00;;;;;;5115972;27;20517;-72
2024/01/04 06:40:38;;;;;;;0.40;0.20;;;8.60;1.00;;;;;;5121501;27;20682;-72
2024/01/04 06:43:08;;;;;;;0.40;0.10;;;8.50;1.00;;;;;;5122084;27;20684;-73
2024/01/04 06:45:35;;;;;;;0.75;0.20;;;8.50;1.00;;;;;;5123548;28;20410;-72
2024/01/04 06:48:02;;;;;;;0.40;0.20;;;8.40;1.00;;;;;;5122048;28;20426;-72
2024/01/04 06:50:30;;;;;;;0.70;0.20;;;8.40;1.00;;;;;;5123393;28;20493;-73
2024/01/04 06:52:57;;;;;;;0.30;0.10;;;8.40;1.00;;;;;;5122995;28;20434;-72
2024/01/04 06:55:24;;;;;;;0.30;0.10;;;8.40;1.00;;;;;;5122916;27;20944;-72
2024/01/04 06:57:51;;;;;;;0.40;0.10;;;8.50;1.00;;;;;;5120030;28;20846;-72
2024/01/04 07:00:20;;;;;;;0.90;0.20;;;8.50;1.00;;;;;;5125346;28;20418;-72
2024/01/04 07:02:47;;;;;;;1.20;0.20;;;8.60;1.00;;;;;;5117325;28;20486;-72
2024/01/04 07:05:14;;;;;;;0.40;0.10;;;8.60;1.00;;;;;;5121661;27;20433;-72
2024/01/04 07:07:41;;;;;;;0.47;0.20;;;8.60;1.00;;;;;;5120815;27;20416;-73
2024/01/04 07:10:09;;;;;;;0.60;0.20;;;8.70;1.00;;;;;;5120999;28;20687;-73
2024/01/04 07:12:37;;;;;;;1.70;0.20;;;8.70;1.00;;;;;;5120519;28;20510;-72
2024/01/04 07:15:05;;;;;;;0.47;0.20;;;8.60;1.00;;;;;;5114779;28;20775;-73
2024/01/04 07:17:33;;;;;;;0.57;0.10;;;8.60;1.00;;;;;;5122862;27;20454;-72
2024/01/04 07:20:00;;;;;;;0.40;0.10;;;8.60;1.00;;;;;;5125012;27;20427;-73
2024/01/04 07:22:27;;;;;;;0.40;0.10;;;8.60;1.00;;;;;;5125369;27;20411;-72
2024/01/04 07:24:56;;;;;;;0.80;0.20;;;8.60;1.00;;;;;;5124560;27;20410;-72
2024/01/04 07:27:23;;;;;;;0.40;0.10;;;8.50;1.00;;;;;;5123800;27;20434;-72
2024/01/04 07:29:50;;;;;;;1.25;0.30;;;8.60;1.00;;;;;;5124048;27;20662;-72
2024/01/04 07:32:18;;;;;;;0.40;0.20;;;8.50;1.00;;;;;;5125925;27;20512;-72
2024/01/04 07:34:47;;;;;;;4.90;0.50;;;8.50;1.00;;;;;;5120656;27;20484;-72
2024/01/04 07:37:14;;;;;;;0.90;0.30;;;8.30;1.00;;;;;;5119946;27;20527;-71
2024/01/04 07:39:41;;;;;;;0.40;0.17;;;8.10;1.00;;;;;;5121444;27;20404;-71
2024/01/04 07:42:09;;;;;;;0.70;0.20;;;8.20;11.60;;;;;;5121649;27;20420;-71
2024/01/04 07:44:36;;;;;;;1.10;0.20;;;8.20;43.30;;;;;;5128992;27;20831;-71
2024/01/04 07:47:03;;;;;;;1.83;0.20;;;8.20;42.90;;;;;;5135182;27;20422;-72
2024/01/04 07:49:30;;;;;;;0.50;0.10;;;8.10;26.90;;;;;;5135364;27;20475;-70
2024/01/04 07:51:58;;;;;;;0.30;0.10;;;8.10;34.40;;;;;;5126163;27;20420;-71
2024/01/04 07:54:26;;;;;;;0.60;0.20;;;8.00;22.90;;;;;;5096345;28;20451;-71
2024/01/04 07:56:53;;;;;;;0.90;0.10;;;8.00;36.90;;;;;;5119292;27;20482;-73
2024/01/04 07:59:22;;;;;;;0.73;0.20;;;8.30;52.50;;;;;;5134163;27;20458;-72
2024/01/04 08:01:49;;;;;;;1.00;0.17;;;8.20;29.30;;;;;;5136614;27;20429;-72
2024/01/04 08:04:16;;;;;;;0.30;0.10;;;8.10;7.50;;;;;;5117108;27;20501;-72
2024/01/04 08:06:44;;;;;;;0.30;0.10;;;8.10;1.00;;;;;;5096275;28;20718;-73
2024/01/04 08:09:12;;;;;;;0.90;0.20;;;8.20;1.00;;;;;;5095776;28;20433;-72
2024/01/04 08:11:39;;;;;;;0.90;0.20;;;8.10;1.00;;;;;;5095704;28;20437;-71
2024/01/04 08:14:06;;;;;;;0.98;0.30;;;8.20;1.10;;;;;;5093267;28;20437;-71
2024/01/04 08:16:33;;;;;;;1.40;0.20;;;8.10;1.00;;;;;;5094712;28;20433;-72
2024/01/04 08:19:01;;;;;;;0.50;0.20;;;8.00;1.00;;;;;;5094876;28;20422;-72
2024/01/04 08:21:28;;;;;;;0.50;0.20;;;8.00;1.00;;;;;;5105534;28;20522;-72
2024/01/04 08:23:55;;;;;;;1.83;0.20;;;8.00;1.00;;;;;;5114665;28;20542;-72
2024/01/04 08:26:24;;;;;;;0.80;0.20;;;8.00;1.00;;;;;;5115064;28;20521;-74
2024/01/04 08:28:51;;;;;;;0.88;0.20;;;7.90;1.00;;;;;;5113375;28;20961;-71
2024/01/04 08:31:18;;;;;;;1.30;0.20;;;7.90;1.00;;;;;;5113667;28;20992;-72
2024/01/04 08:33:45;;;;;;;1.10;0.20;;;8.30;16.50;;;;;;5104412;28;20460;-72
2024/01/04 08:36:12;;;;;;;0.52;0.20;;;8.20;1.00;;;;;;5114449;27;20806;-72
2024/01/04 08:38:39;;;;;;;1.13;0.20;;;8.20;1.00;;;;;;5118831;27;20430;-71
2024/01/04 08:41:06;;;;;;;0.50;0.20;;;8.20;1.00;;;;;;5131438;27;20487;-72
2024/01/04 08:43:34;;;;;;;1.00;0.10;;;8.10;1.00;;;;;;5118302;27;20530;-72
2024/01/04 08:46:01;;;;;;;0.70;0.20;;;8.20;1.00;;;;;;5119622;27;20467;-71
2024/01/04 08:48:28;;;;;;;0.97;0.20;;;8.20;1.00;;;;;;5094484;28;20406;-71
2024/01/04 08:50:55;;;;;;;1.30;0.20;;;8.20;1.00;;;;;;5095591;28;20470;-71
2024/01/04 08:53:22;;;;;;;0.50;0.20;;;8.40;1.00;;;;;;5112450;28;20927;-72
2024/01/04 08:55:49;;;;;;;1.40;0.20;;;8.50;1.00;;;;;;5111468;28;20428;-72
2024/01/04 08:58:16;;;;;;;0.52;0.20;;;8.70;1.00;;;;;;5111394;28;20435;-71
2024/01/04 09:00:45;;;;;;;0.40;0.20;;;9.00;1.00;;;;;;5102416;28;20483;-71
2024/01/04 09:03:12;;;;;;;0.50;0.20;;;8.90;1.00;;;;;;5102491;28;20460;-71
2024/01/04 09:05:39;;;;;;;1.20;0.10;;;9.00;1.00;;;;;;5113762;28;20416;-71
2024/01/04 09:08:08;;;;;;;0.30;0.10;;;9.00;1.00;;;;;;5095513;28;20750;-71
2024/01/04 09:10:35;;;;;;;0.40;0.10;;;8.90;1.00;;;;;;5093830;28;20430;-70
2024/01/04 09:13:02;;;;;;;0.30;0.10;;;9.20;1.00;;;;;;5111246;28;20432;-72
2024/01/04 09:15:29;;;;;;;0.95;0.20;;;9.20;1.00;;;;;;5109973;28;20528;-72
2024/01/04 09:17:58;;;;;;;0.52;0.20;;;9.10;99.90;;;;;;5094368;28;20438;-72
2024/01/04 09:20:25;;;;;;;0.90;0.20;;;8.90;99.90;;;;;;5094295;28;20421;-72
2024/01/04 09:22:52;;;;;;;0.80;0.10;;;9.10;1.00;;;;;;5100176;28;20814;-72
2024/01/04 09:25:19;;;;;;;0.50;0.10;;;9.20;99.90;;;;;;5104203;28;20921;-72
2024/01/04 09:27:46;;;;;;;0.50;0.10;;;9.20;99.90;;;;;;5104165;28;20442;-72
2024/01/04 09:30:14;;;;;;;0.57;0.20;;;9.00;99.90;;;;;;5098194;28;20987;-72
2024/01/04 09:32:42;;;;;;;0.60;0.20;;;9.00;1.00;;;;;;5104108;28;20435;-74
2024/01/04 09:35:11;;;;;;;0.70;0.20;;;9.10;99.90;;;;;;5099422;28;20426;-72
2024/01/04 09:37:38;;;;;;;0.70;0.20;;;9.20;99.90;;;;;;5094831;28;20416;-71
2024/01/04 09:40:06;;;;;;;0.30;0.10;;;9.10;99.90;;;;;;5106820;28;20427;-71
2024/01/04 09:42:38;;;;;;;0.47;0.13;;;9.10;94.40;;;;;;5110693;28;20511;-71
2024/01/04 09:45:10;;;;;;;1.60;0.30;;;9.30;99.90;;;;;;5080915;28;20432;-70
2024/01/04 09:47:40;;;;;;;1.20;0.40;;;9.50;1.00;;;;;;5093313;28;20512;-71
2024/01/04 09:50:10;;;;;;;0.63;0.30;;;9.70;99.90;;;;;;5104379;28;20713;-71
2024/01/04 09:52:43;;;;;;;1.70;0.20;;;9.80;99.90;;;;;;5103885;28;20910;-72
2024/01/04 09:55:12;;;;;;;2.65;0.20;;;9.90;99.90;;;;;;5119277;27;20438;-72
2024/01/04 09:57:39;;;;;;;1.20;0.20;;;9.90;1.00;;;;;;5107808;28;20892;-72
2024/01/04 10:00:08;;;;;;;1.98;0.20;;;9.80;99.90;;;;;;5094643;28;20508;-72
2024/01/04 10:02:41;;;;;;;0.80;0.20;;;9.70;1.00;;;;;;5095126;28;20430;-72
2024/01/04 10:05:13;;;;;;;1.10;0.20;;;9.80;1.00;;;;;;5105658;28;20477;-72
2024/01/04 10:07:48;;;;;;;0.90;0.20;;;9.70;1.00;;;;;;5108151;28;20443;-71
2024/01/04 10:10:19;;;;;;;0.40;0.10;;;9.70;1.00;;;;;;5107657;28;20428;-71
2024/01/04 10:12:48;;;;;;;0.50;0.20;;;9.80;1.00;;;;;;5105970;28;20441;-71
2024/01/04 10:15:15;;;;;;;0.60;0.20;;;9.90;1.00;;;;;;5099746;28;20446;-71
2024/01/04 10:17:45;;;;;;;0.40;0.10;;;10.00;1.00;;;;;;5106322;28;20821;-71
2024/01/04 10:20:13;;;;;;;1.40;0.20;;;10.00;1.00;;;;;;5115841;27;20435;-71
2024/01/04 10:22:45;;;;;;;1.00;0.20;;;9.70;1.00;;;;;;5110538;28;20404;-72
2024/01/04 10:25:18;;;;;;;0.50;0.20;;;9.60;1.00;;;;;;5098903;28;20444;-71
2024/01/04 10:27:55;;;;;;;1.05;0.20;;;9.60;99.90;;;;;;5108789;28;20443;-72
2024/01/04 10:30:22;;;;;;;1.00;0.20;;;9.50;99.90;;;;;;5098337;28;20657;-72
2024/01/04 10:32:50;;;;;;;0.70;0.20;;;9.50;1.00;;;;;;5097882;28;20452;-72
2024/01/04 10:35:26;;;;;;;0.73;0.20;;;9.50;99.90;;;;;;5098564;28;20516;-72
2024/01/04 10:37:59;;;;;;;0.60;0.20;;;9.40;1.00;;;;;;5112363;28;20515;-72
2024/01/04 10:40:26;;;;;;;0.60;0.20;;;9.50;1.00;;;;;;5109029;28;20435;-73
2024/01/04 10:42:54;;;;;;;0.68;0.20;;;9.70;1.00;;;;;;5101923;28;20498;-73
2024/01/04 10:45:30;;;;;;;0.30;0.20;;;9.80;1.00;;;;;;5106236;28;20434;-73
2024/01/04 10:47:57;;;;;;;0.40;0.10;;;9.50;1.00;;;;;;5106972;28;20798;-71
2024/01/04 10:50:25;;;;;;;0.50;0.10;;;9.40;1.00;;;;;;5091400;28;20847;-71
2024/01/04 10:52:55;;;;;;;0.77;0.10;;;9.30;99.90;;;;;;5109556;28;20478;-71
2024/01/04 10:55:25;;;;;;;0.40;0.10;;;9.30;1.00;;;;;;5103447;27;20444;-71
2024/01/04 10:57:53;;;;;;;1.50;0.10;;;9.30;1.00;;;;;;5110193;28;20898;-72
2024/01/04 11:00:20;;;;;;;0.70;0.10;;;9.20;1.00;;;;;;5107332;28;20495;-74
2024/01/04 11:02:50;;;;;;;0.60;0.20;;;9.10;1.00;;;;;;5103397;28;20425;-74
2024/01/04 11:05:20;;;;;;;0.30;0.10;;;9.20;1.00;;;;;;5103014;28;20452;-74
2024/01/04 11:07:49;;;;;;;0.30;0.10;;;9.20;1.00;;;;;;5115987;28;20428;-74
2024/01/04 11:10:18;;;;;;;1.00;0.10;;;9.10;99.90;;;;;;5102917;28;20872;-74
2024/01/04 11:12:48;;;;;;;0.30;0.10;;;9.30;1.00;;;;;;5094702;28;20425;-73
2024/01/04 11:15:16;;;;;;;1.10;0.17;;;9.50;1.00;;;;;;5093503;28;20442;-73
2024/01/04 11:17:59;;;;;;;0.30;0.10;;;9.70;99.90;;;;;;5095193;28;20422;-72
2024/01/04 11:20:42;;;;;;;0.77;0.30;;;9.60;28.20;;;;;;5096277;28;20432;-73
2024/01/04 11:23:24;;;;;;;1.02;0.20;;;9.70;99.90;;;;;;5096738;28;20516;-72
2024/01/04 11:26:16;;;;;;;0.90;0.10;;;9.70;99.90;;;;;;5095365;28;20418;-73
2024/01/04 11:28:46;;;;;;;0.80;0.20;;;9.60;1.00;;;;;;5089192;28;20834;-72
2024/01/04 11:31:13;;;;;;;0.30;0.10;;;9.90;1.00;;;;;;5096266;28;20422;-72
2024/01/04 11:33:41;;;;;;;0.50;0.10;;;10.10;1.00;;;;;;5096112;28;20529;-71
2024/01/04 11:36:08;;;;;;;0.90;0.20;;;10.30;1.00;;;;;;5096274;28;20424;-72
2024/01/04 11:38:36;;;;;;;0.40;0.20;;;10.20;99.90;;;;;;5094171;28;20429;-72
2024/01/04 11:41:03;;;;;;;0.60;0.10;;;10.00;99.90;;;;;;5092413;28;20705;-72
2024/01/04 11:43:39;;;;;;;1.00;0.20;;;10.00;99.90;;;;;;5105848;27;20808;-72
2024/01/04 11:46:21;;;;;;;0.40;0.20;;;9.90;99.90;;;;;;5121975;27;20429;-72
2024/01/04 11:48:54;;;;;;;1.10;0.20;;;9.90;99.90;;;;;;5137173;27;20422;-72
2024/01/04 11:51:44;;;;;;;0.40;0.20;;;9.90;1.00;;;;;;5134424;27;20514;-72
2024/01/04 11:54:13;;;;;;;1.58;0.20;;;9.90;1.00;;;;;;5115526;28;20427;-72
2024/01/04 11:56:40;;;;;;;0.57;0.20;;;9.70;1.00;;;;;;5105414;28;20430;-71
2024/01/04 11:59:11;;;;;;;1.20;0.30;;;9.40;1.00;;;;;;5098519;28;20439;-72
2024/01/04 12:01:40;;;;;;;0.60;0.20;;;9.50;1.00;;;;;;5105372;27;20416;-72
2024/01/04 12:04:12;;;;;;;0.70;0.20;;;9.70;1.00;;;;;;5094531;28;20819;-72
2024/01/04 12:06:40;;;;;;;0.40;0.10;;;9.50;1.00;;;;;;5094781;28;21081;-72
2024/01/04 12:09:07;;;;;;;0.40;0.15;;;9.30;1.00;;;;;;5094813;28;20815;-72
2024/01/04 12:11:35;;;;;;;1.42;0.30;;;9.40;1.00;;;;;;5095403;28;20517;-72
2024/01/04 12:14:03;;;;;;;0.70;0.40;;;9.40;1.00;;;;;;5094760;28;20429;-72
2024/01/04 12:16:30;;;;;;;0.50;0.22;;;9.40;1.00;;;;;;5094495;28;20418;-72
2024/01/04 12:19:01;;;;;;;0.50;0.20;;;9.70;1.00;;;;;;5094519;28;20429;-72
2024/01/04 12:21:28;;;;;;;0.70;0.20;;;9.70;1.00;;;;;;5096521;28;20422;-72
2024/01/04 12:23:55;;;;;;;1.00;0.20;;;9.70;99.90;;;;;;5114951;28;20456;-72
2024/01/04 12:26:24;;;;;;;0.90;0.20;;;9.60;99.90;;;;;;5114307;28;20503;-72
2024/01/04 12:28:52;;;;;;;0.60;0.20;;;9.50;8.00;;;;;;5115976;28;20443;-73
2024/01/04 12:31:20;;;;;;;0.90;0.20;;;9.40;99.90;;;;;;5111537;28;20429;-73
2024/01/04 12:33:50;;;;;;;1.00;0.20;;;9.40;99.90;;;;;;5095462;28;20434;-72
2024/01/04 12:36:22;;;;;;;0.50;0.20;;;9.50;99.90;;;;;;5095270;28;20753;-73
2024/01/04 12:38:53;;;;;;;1.10;0.20;;;9.70;99.90;;;;;;5094240;28;20463;-73
2024/01/04 12:41:29;;;;;;;0.60;0.20;;;9.70;1.00;;;;;;5094697;28;20433;-72
2024/01/04 12:43:57;;;;;;;1.10;0.20;;;9.90;1.00;;;;;;5094281;28;20457;-72
2024/01/04 12:46:26;;;;;;;0.30;0.10;;;10.00;99.90;;;;;;5094395;28;20457;-73
2024/01/04 12:48:53;;;;;;;0.70;0.20;;;10.10;99.90;;;;;;5093898;28;20528;-72
2024/01/04 12:51:28;;;;;;;0.60;0.20;;;10.00;1.00;;;;;;5094840;28;20495;-72
2024/01/04 12:53:55;;;;;;;1.02;0.20;;;10.20;1.00;;;;;;5114777;28;20998;-71
2024/01/04 12:56:22;;;;;;;1.10;0.20;;;10.20;1.00;;;;;;5114623;28;20413;-71
2024/01/04 12:58:50;;;;;;;0.80;0.20;;;10.20;1.00;;;;;;5112914;28;20451;-72
2024/01/04 13:01:18;;;;;;;0.60;0.20;;;10.30;1.00;;;;;;5114518;28;20434;-72
2024/01/04 13:03:45;;;;;;;2.47;0.30;;;10.10;1.00;;;;;;5114557;28;20423;-72
2024/01/04 13:06:12;;;;;;;0.60;0.30;;;10.10;38.50;;;;;;5108785;28;20433;-72